createdAt,value
2018-02-08T00:00:13.688Z,86.58
2018-02-08T00:01:16.230Z,86.87
2018-02-08T00:02:18.738Z,87.35
2018-02-08T00:03:21.228Z,87.64
2018-02-08T00:04:23.735Z,87.91
2018-02-08T00:05:26.210Z,88.08
2018-02-08T00:06:28.678Z,88.34
2018-02-08T00:07:31.160Z,88.57
2018-02-08T00:08:33.653Z,88.39
2018-02-08T00:09:36.122Z,87.54
2018-02-08T00:10:38.606Z,87.53
2018-02-08T00:11:41.080Z,87.33
2018-02-08T00:12:43.568Z,87.15
2018-02-08T00:13:46.045Z,87.30
2018-02-08T00:14:48.529Z,87.59
2018-02-08T00:15:50.998Z,88.08
2018-02-08T00:16:53.476Z,88.18
2018-02-08T00:17:55.964Z,87.86
2018-02-08T00:18:58.449Z,87.52
2018-02-08T00:20:00.964Z,87.36
2018-02-08T00:21:03.438Z,87.42
2018-02-08T00:22:05.983Z,86.54
2018-02-08T00:23:08.488Z,86.33
2018-02-08T00:24:10.958Z,86.65
2018-02-08T00:25:13.444Z,86.63
2018-02-08T00:26:15.919Z,86.76
2018-02-08T00:27:18.402Z,87.12
2018-02-08T00:28:20.889Z,87.47
2018-02-08T00:29:23.401Z,87.76
2018-02-08T00:30:25.904Z,88.08
2018-02-08T00:31:28.386Z,88.59
2018-02-08T00:32:30.884Z,88.91
2018-02-08T00:33:33.357Z,89.36
2018-02-08T00:34:35.826Z,89.55
2018-02-08T00:35:38.309Z,89.83
2018-02-08T00:36:40.797Z,90.04
2018-02-08T00:37:43.293Z,90.21
2018-02-08T00:38:45.763Z,90.39
2018-02-08T00:39:48.231Z,90.51
2018-02-08T00:40:50.707Z,90.58
2018-02-08T00:41:53.178Z,90.58
2018-02-08T00:42:55.665Z,90.45
2018-02-08T00:43:58.168Z,90.28
2018-02-08T00:45:00.656Z,90.33
2018-02-08T00:46:03.144Z,90.43
2018-02-08T00:47:05.637Z,90.32
2018-02-08T00:48:08.107Z,90.45
2018-02-08T00:49:10.598Z,90.61
2018-02-08T00:50:13.070Z,90.72
2018-02-08T00:51:15.546Z,90.83
2018-02-08T00:52:18.054Z,90.98
2018-02-08T00:53:20.541Z,90.92
2018-02-08T00:54:23.031Z,90.59
2018-02-08T00:55:25.519Z,90.35
2018-02-08T00:56:27.986Z,90.08
2018-02-08T00:57:30.455Z,90.02
2018-02-08T00:58:32.950Z,90.16
2018-02-08T00:59:35.438Z,90.34
2018-02-08T01:00:37.925Z,90.27
2018-02-08T01:01:40.412Z,90.23
2018-02-08T01:02:42.892Z,90.25
2018-02-08T01:03:45.373Z,90.40
2018-02-08T01:04:47.843Z,90.65
2018-02-08T01:05:50.314Z,90.65
2018-02-08T01:06:52.794Z,90.51
2018-02-08T01:07:55.274Z,90.31
2018-02-08T01:08:57.765Z,90.31
2018-02-08T01:10:00.252Z,90.54
2018-02-08T01:11:02.741Z,90.56
2018-02-08T01:12:05.216Z,90.22
2018-02-08T01:13:07.718Z,89.91
2018-02-08T01:14:10.200Z,89.80
2018-02-08T01:15:12.685Z,89.75
2018-02-08T01:16:15.178Z,89.72
2018-02-08T01:17:17.691Z,89.79
2018-02-08T01:18:20.175Z,90.06
2018-02-08T01:19:22.645Z,90.29
2018-02-08T01:20:25.125Z,90.62
2018-02-08T01:21:27.599Z,90.74
2018-02-08T01:22:30.075Z,90.88
2018-02-08T01:23:32.546Z,91.04
2018-02-08T01:24:35.041Z,91.23
2018-02-08T01:25:37.528Z,91.44
2018-02-08T01:26:40.016Z,91.64
2018-02-08T01:27:42.509Z,91.80
2018-02-08T01:28:44.982Z,91.97
2018-02-08T01:29:47.497Z,92.05
2018-02-08T01:30:49.965Z,92.00
2018-02-08T01:31:52.504Z,91.97
2018-02-08T01:32:54.958Z,92.00
2018-02-08T01:33:57.435Z,92.00
2018-02-08T01:34:59.914Z,92.04
2018-02-08T01:36:02.409Z,92.13
2018-02-08T01:37:04.881Z,92.23
2018-02-08T01:38:07.354Z,92.31
2018-02-08T01:39:09.832Z,92.31
2018-02-08T01:40:12.312Z,92.32
2018-02-08T01:41:14.791Z,92.39
2018-02-08T01:42:17.258Z,92.46
2018-02-08T01:43:19.747Z,92.52
2018-02-08T01:44:22.236Z,92.52
2018-02-08T01:45:24.717Z,92.47
2018-02-08T01:46:27.207Z,92.39
2018-02-08T01:47:29.687Z,92.29
2018-02-08T01:48:32.159Z,92.10
2018-02-08T01:49:45.533Z,91.89
2018-02-08T01:50:48.017Z,91.79
2018-02-08T01:51:50.490Z,91.83
2018-02-08T01:52:52.962Z,91.70
2018-02-08T01:53:55.436Z,91.57
2018-02-08T01:54:58.030Z,91.48
2018-02-08T01:56:00.499Z,91.47
2018-02-08T01:57:03.016Z,91.55
2018-02-08T01:58:05.509Z,91.47
2018-02-08T01:59:07.978Z,91.40
2018-02-08T02:00:10.473Z,91.46
2018-02-08T02:01:12.946Z,91.55
2018-02-08T02:02:15.439Z,91.72
2018-02-08T02:03:17.936Z,91.91
2018-02-08T02:04:20.411Z,92.02
2018-02-08T02:05:22.894Z,92.12
2018-02-08T02:06:25.381Z,92.24
2018-02-08T02:07:27.850Z,92.40
2018-02-08T02:08:30.338Z,92.48
2018-02-08T02:09:32.807Z,92.48
2018-02-08T02:10:35.293Z,92.47
2018-02-08T02:11:37.784Z,92.48
2018-02-08T02:12:40.255Z,92.51
2018-02-08T02:13:42.719Z,92.56
2018-02-08T02:14:45.191Z,92.55
2018-02-08T02:15:47.668Z,92.35
2018-02-08T02:16:50.153Z,92.09
2018-02-08T02:17:52.623Z,91.91
2018-02-08T02:18:55.141Z,91.68
2018-02-08T02:19:57.658Z,91.51
2018-02-08T02:21:00.189Z,91.47
2018-02-08T02:22:02.660Z,91.56
2018-02-08T02:23:05.127Z,91.69
2018-02-08T02:24:07.595Z,91.80
2018-02-08T02:25:10.078Z,91.86
2018-02-08T02:26:12.585Z,91.97
2018-02-08T02:27:15.073Z,92.09
2018-02-08T02:28:17.542Z,91.99
2018-02-08T02:29:20.045Z,91.84
2018-02-08T02:30:22.538Z,91.74
2018-02-08T02:31:25.074Z,91.69
2018-02-08T02:32:27.547Z,91.76
2018-02-08T02:33:30.029Z,91.96
2018-02-08T02:34:32.503Z,92.11
2018-02-08T02:35:35.001Z,92.17
2018-02-08T02:36:37.470Z,92.11
2018-02-08T02:37:39.953Z,92.04
2018-02-08T02:38:42.477Z,91.80
2018-02-08T02:39:44.969Z,91.75
2018-02-08T02:40:47.442Z,91.61
2018-02-08T02:41:49.915Z,91.48
2018-02-08T02:42:52.392Z,91.53
2018-02-08T02:43:54.916Z,91.54
2018-02-08T02:44:57.364Z,91.68
2018-02-08T02:45:59.834Z,91.59
2018-02-08T02:47:02.328Z,91.03
2018-02-08T02:48:04.809Z,90.75
2018-02-08T02:49:07.294Z,90.87
2018-02-08T02:50:09.816Z,90.66
2018-02-08T02:51:12.310Z,90.07
2018-02-08T02:52:14.801Z,89.76
2018-02-08T02:53:17.302Z,89.83
2018-02-08T02:54:19.790Z,89.80
2018-02-08T02:55:22.273Z,89.25
2018-02-08T02:56:24.751Z,88.86
2018-02-08T02:57:27.237Z,89.00
2018-02-08T02:58:29.713Z,89.30
2018-02-08T02:59:32.213Z,89.82
2018-02-08T03:00:34.683Z,89.96
2018-02-08T03:01:37.160Z,90.13
2018-02-08T03:02:39.660Z,90.54
2018-02-08T03:03:42.132Z,90.86
2018-02-08T03:04:44.620Z,91.19
2018-02-08T03:05:47.114Z,91.21
2018-02-08T03:06:49.588Z,91.10
2018-02-08T03:07:52.063Z,91.12
2018-02-08T03:08:54.544Z,91.27
2018-02-08T03:09:57.037Z,91.55
2018-02-08T03:10:59.528Z,91.78
2018-02-08T03:12:02.009Z,91.93
2018-02-08T03:13:04.506Z,92.11
2018-02-08T03:14:06.975Z,92.30
2018-02-08T03:15:09.443Z,92.51
2018-02-08T03:16:11.918Z,92.62
2018-02-08T03:17:14.396Z,92.56
2018-02-08T03:18:16.862Z,91.96
2018-02-08T03:19:19.343Z,91.68
2018-02-08T03:20:21.848Z,91.62
2018-02-08T03:21:24.322Z,91.68
2018-02-08T03:22:26.813Z,91.64
2018-02-08T03:23:29.548Z,91.63
2018-02-08T03:24:32.085Z,91.75
2018-02-08T03:25:34.568Z,91.83
2018-02-08T03:26:37.042Z,91.75
2018-02-08T03:27:39.533Z,91.81
2018-02-08T03:28:42.022Z,91.96
2018-02-08T03:29:44.498Z,92.16
2018-02-08T03:30:47.471Z,92.33
2018-02-08T03:31:49.971Z,92.49
2018-02-08T03:32:52.447Z,92.67
2018-02-08T03:33:54.942Z,92.85
2018-02-08T03:34:57.433Z,92.95
2018-02-08T03:35:59.927Z,93.04
2018-02-08T03:37:02.420Z,93.15
2018-02-08T03:38:04.904Z,93.20
2018-02-08T03:39:07.375Z,93.32
2018-02-08T03:40:09.853Z,93.41
2018-02-08T03:41:12.344Z,93.43
2018-02-08T03:42:14.839Z,93.45
2018-02-08T03:43:17.339Z,93.48
2018-02-08T03:44:19.814Z,93.52
2018-02-08T03:45:22.287Z,93.34
2018-02-08T03:46:24.776Z,93.14
2018-02-08T03:47:27.290Z,92.91
2018-02-08T03:48:29.762Z,92.73
2018-02-08T03:49:32.248Z,92.69
2018-02-08T03:50:34.735Z,92.71
2018-02-08T03:51:37.209Z,92.71
2018-02-08T03:52:39.713Z,92.74
2018-02-08T03:53:42.221Z,92.80
2018-02-08T03:54:44.694Z,92.91
2018-02-08T03:55:47.210Z,93.00
2018-02-08T03:56:49.686Z,93.08
2018-02-08T03:57:52.176Z,93.13
2018-02-08T03:58:54.651Z,93.19
2018-02-08T03:59:57.146Z,93.30
2018-02-08T04:00:59.618Z,93.42
2018-02-08T04:02:02.088Z,93.49
2018-02-08T04:03:04.635Z,93.52
2018-02-08T04:04:07.140Z,93.56
2018-02-08T04:05:09.615Z,93.58
2018-02-08T04:06:12.104Z,93.61
2018-02-08T04:07:14.585Z,93.60
2018-02-08T04:08:17.097Z,93.61
2018-02-08T04:09:19.570Z,93.59
2018-02-08T04:10:22.046Z,93.58
2018-02-08T04:11:24.517Z,93.50
2018-02-08T04:12:27.068Z,93.44
2018-02-08T04:13:29.566Z,93.40
2018-02-08T04:14:32.039Z,93.36
2018-02-08T04:15:34.519Z,93.21
2018-02-08T04:16:37.010Z,92.99
2018-02-08T04:17:39.500Z,92.83
2018-02-08T04:18:41.991Z,92.65
2018-02-08T04:19:44.462Z,92.44
2018-02-08T04:20:46.998Z,92.32
2018-02-08T04:21:49.470Z,92.30
2018-02-08T04:22:52.022Z,92.35
2018-02-08T04:23:54.541Z,92.49
2018-02-08T04:24:57.022Z,92.60
2018-02-08T04:25:59.516Z,92.66
2018-02-08T04:27:02.009Z,92.64
2018-02-08T04:28:04.546Z,92.72
2018-02-08T04:29:07.066Z,92.81
2018-02-08T04:30:09.539Z,92.89
2018-02-08T04:31:12.024Z,92.98
2018-02-08T04:32:14.516Z,93.02
2018-02-08T04:33:17.013Z,93.07
2018-02-08T04:34:19.528Z,93.18
2018-02-08T04:35:22.003Z,93.26
2018-02-08T04:36:24.480Z,93.27
2018-02-08T04:37:26.969Z,93.18
2018-02-08T04:38:41.246Z,93.10
2018-02-08T04:39:55.454Z,93.00
2018-02-08T05:23:52.685Z,91.16
2018-02-08T05:24:55.155Z,90.78
2018-02-08T05:25:57.647Z,90.63
2018-02-08T05:27:00.115Z,90.13
2018-02-08T05:28:02.640Z,89.78
2018-02-08T05:29:05.138Z,89.83
2018-02-08T05:30:07.616Z,89.74
2018-02-08T05:31:10.082Z,89.83
2018-02-08T05:32:12.566Z,89.80
2018-02-08T05:33:15.088Z,89.70
2018-02-08T05:34:17.605Z,89.51
2018-02-08T05:35:20.093Z,89.63
2018-02-08T05:36:22.678Z,89.95
2018-02-08T05:37:25.137Z,90.30
2018-02-08T05:38:27.611Z,90.56
2018-02-08T05:39:30.089Z,90.90
2018-02-08T05:40:32.577Z,91.27
2018-02-08T05:41:35.043Z,91.44
2018-02-08T05:42:37.532Z,91.74
2018-02-08T05:43:40.004Z,92.09
2018-02-08T05:44:42.475Z,92.33
2018-02-08T05:45:44.960Z,92.49
2018-02-08T05:46:47.457Z,92.59
2018-02-08T05:47:49.943Z,92.72
2018-02-08T05:48:52.437Z,92.85
2018-02-08T05:49:54.907Z,93.00
2018-02-08T05:50:57.400Z,93.18
2018-02-08T05:51:59.882Z,93.17
2018-02-08T05:53:02.355Z,93.20
2018-02-08T05:54:04.839Z,93.23
2018-02-08T05:55:07.327Z,93.28
2018-02-08T05:56:09.833Z,93.36
2018-02-08T05:57:12.325Z,93.41
2018-02-08T05:58:14.822Z,93.55
2018-02-08T05:59:17.317Z,93.66
2018-02-08T06:00:19.802Z,93.70
2018-02-08T06:01:22.281Z,93.70
2018-02-08T06:02:24.824Z,93.72
2018-02-08T06:03:27.294Z,93.76
2018-02-08T06:04:29.767Z,93.76
2018-02-08T06:05:32.243Z,93.69
2018-02-08T06:06:34.717Z,93.57
2018-02-08T06:07:37.205Z,93.52
2018-02-08T06:08:39.688Z,93.53
2018-02-08T06:09:42.189Z,93.55
2018-02-08T06:10:44.677Z,93.58
2018-02-08T06:11:47.154Z,93.64
2018-02-08T06:12:49.659Z,93.69
2018-02-08T06:13:52.142Z,93.80
2018-02-08T06:14:54.638Z,93.93
2018-02-08T06:15:57.124Z,94.08
2018-02-08T06:16:59.605Z,94.21
2018-02-08T06:18:02.094Z,94.28
2018-02-08T06:19:04.563Z,94.31
2018-02-08T06:20:07.046Z,94.32
2018-02-08T06:21:09.530Z,94.37
2018-02-08T06:22:12.004Z,94.46
2018-02-08T06:23:14.478Z,94.52
2018-02-08T06:24:16.980Z,94.50
2018-02-08T06:25:19.443Z,94.42
2018-02-08T06:26:21.922Z,94.33
2018-02-08T06:27:24.411Z,94.24
2018-02-08T06:28:26.912Z,94.16
2018-02-08T06:29:29.424Z,94.13
2018-02-08T06:30:31.934Z,93.86
2018-02-08T06:31:34.406Z,93.44
2018-02-08T06:32:36.898Z,92.89
2018-02-08T06:33:39.389Z,92.38
2018-02-08T06:34:41.866Z,92.08
2018-02-08T06:35:44.343Z,91.65
2018-02-08T06:36:46.826Z,91.60
2018-02-08T06:37:49.298Z,91.66
2018-02-08T06:38:51.766Z,91.78
2018-02-08T06:39:54.256Z,92.04
2018-02-08T06:40:56.733Z,92.24
2018-02-08T06:42:00.100Z,92.49
2018-02-08T06:43:02.601Z,92.74
2018-02-08T06:44:05.115Z,92.97
2018-02-08T06:45:07.599Z,93.18
2018-02-08T06:46:10.097Z,93.33
2018-02-08T06:47:12.612Z,93.41
2018-02-08T06:48:15.084Z,93.46
2018-02-08T06:49:17.608Z,93.42
2018-02-08T06:50:20.117Z,93.45
2018-02-08T06:51:22.594Z,93.18
2018-02-08T06:52:25.116Z,92.51
2018-02-08T06:53:27.627Z,91.85
2018-02-08T06:54:30.109Z,91.33
2018-02-08T06:55:32.597Z,91.28
2018-02-08T06:56:35.090Z,91.27
2018-02-08T06:57:37.578Z,91.12
2018-02-08T06:58:40.071Z,91.20
2018-02-08T06:59:42.560Z,91.34
2018-02-08T07:00:45.054Z,91.33
2018-02-08T07:01:47.539Z,91.39
2018-02-08T07:02:50.064Z,91.56
2018-02-08T07:03:52.617Z,91.78
2018-02-08T07:04:55.054Z,91.98
2018-02-08T07:05:57.553Z,91.93
2018-02-08T07:07:00.057Z,91.97
2018-02-08T07:08:02.648Z,92.02
2018-02-08T07:09:05.120Z,92.16
2018-02-08T07:10:07.591Z,92.27
2018-02-08T07:11:10.433Z,92.40
2018-02-08T07:12:12.910Z,92.27
2018-02-08T07:13:15.394Z,92.09
2018-02-08T07:14:17.877Z,91.95
2018-02-08T07:15:20.385Z,91.86
2018-02-08T07:16:22.860Z,91.82
2018-02-08T07:17:25.350Z,91.72
2018-02-08T07:18:27.838Z,91.63
2018-02-08T07:19:30.318Z,91.66
2018-02-08T07:20:32.805Z,91.74
2018-02-08T07:21:35.287Z,91.76
2018-02-08T07:22:38.081Z,91.39
2018-02-08T07:23:40.626Z,91.30
2018-02-08T07:24:43.113Z,91.26
2018-02-08T07:25:45.607Z,91.25
2018-02-08T07:26:48.090Z,91.19
2018-02-08T07:27:50.572Z,91.06
2018-02-08T07:28:53.056Z,91.02
2018-02-08T07:29:55.524Z,90.87
2018-02-08T07:30:57.994Z,90.70
2018-02-08T07:32:00.489Z,90.62
2018-02-08T07:33:02.954Z,90.54
2018-02-08T07:34:05.444Z,90.38
2018-02-08T07:35:07.927Z,90.46
2018-02-08T07:36:10.440Z,90.57
2018-02-08T07:37:12.925Z,90.67
2018-02-08T07:38:15.415Z,90.76
2018-02-08T07:39:17.904Z,90.85
2018-02-08T07:40:20.409Z,90.97
2018-02-08T07:41:22.900Z,91.01
2018-02-08T07:42:25.413Z,91.05
2018-02-08T07:43:27.920Z,91.02
2018-02-08T07:44:30.406Z,90.71
2018-02-08T07:45:32.886Z,90.66
2018-02-08T07:46:35.350Z,90.37
2018-02-08T07:47:37.830Z,89.86
2018-02-08T07:48:40.341Z,89.26
2018-02-08T07:49:42.815Z,89.18
2018-02-08T07:50:45.296Z,87.75
2018-02-08T07:51:47.785Z,87.93
2018-02-08T07:52:50.301Z,85.54
2018-02-08T07:53:52.785Z,86.04
2018-02-08T07:54:55.267Z,84.72
2018-02-08T07:55:57.738Z,83.36
2018-02-08T07:57:00.257Z,82.13
2018-02-08T07:58:02.730Z,80.84
2018-02-08T07:59:05.225Z,81.36
2018-02-08T08:00:07.755Z,82.52
2018-02-08T08:01:10.226Z,85.40
2018-02-08T08:02:12.716Z,85.11
2018-02-08T08:03:15.183Z,82.98
2018-02-08T08:04:17.666Z,79.42
2018-02-08T08:05:20.201Z,78.86
2018-02-08T08:06:22.684Z,77.56
2018-02-08T08:07:25.242Z,73.86
2018-02-08T08:08:27.706Z,70.45
2018-02-08T08:09:30.169Z,70.79
2018-02-08T08:10:32.653Z,67.80
2018-02-08T08:11:35.137Z,64.05
2018-02-08T08:12:37.615Z,65.29
2018-02-08T08:13:40.109Z,65.25
2018-02-08T08:14:42.598Z,63.18
2018-02-08T08:15:45.082Z,63.11
2018-02-08T08:16:47.546Z,66.27
2018-02-08T08:17:50.128Z,63.17
2018-02-08T08:18:52.646Z,60.91
2018-02-08T08:19:55.121Z,60.45
2018-02-08T08:20:57.615Z,61.06
2018-02-08T08:22:00.169Z,60.23
2018-02-08T08:23:02.682Z,59.46
2018-02-08T08:24:05.154Z,61.52
2018-02-08T08:25:07.714Z,59.62
2018-02-08T08:26:10.193Z,59.22
2018-02-08T08:27:12.658Z,58.69
2018-02-08T08:28:15.146Z,56.95
2018-02-08T08:29:17.645Z,57.58
2018-02-08T08:30:20.144Z,56.31
2018-02-08T08:31:22.626Z,55.14
2018-02-08T08:32:25.109Z,55.89
2018-02-08T08:33:27.991Z,56.47
2018-02-08T08:34:30.499Z,57.02
2018-02-08T08:35:33.007Z,57.20
2018-02-08T08:36:35.492Z,55.48
2018-02-08T08:37:37.969Z,56.21
2018-02-08T08:38:40.485Z,59.11
2018-02-08T08:39:43.075Z,61.30
2018-02-08T08:40:45.595Z,60.06
2018-02-08T08:41:48.083Z,62.34
2018-02-08T08:42:53.604Z,60.64
2018-02-08T08:43:56.395Z,60.81
2018-02-08T08:44:58.863Z,59.60
2018-02-08T08:46:05.125Z,59.04
2018-02-08T08:47:07.664Z,59.31
2018-02-08T08:48:10.126Z,58.26
2018-02-08T08:49:12.598Z,58.58
2018-02-08T08:50:15.080Z,57.33
2018-02-08T08:51:17.561Z,54.69
2018-02-08T08:52:20.046Z,57.11
2018-02-08T08:53:22.529Z,56.31
2018-02-08T08:54:25.015Z,55.31
2018-02-08T08:55:27.596Z,53.97
2018-02-08T08:56:30.148Z,55.25
2018-02-08T08:57:32.652Z,55.16
2018-02-08T08:58:35.129Z,55.94
2018-02-08T08:59:37.598Z,57.33
2018-02-08T09:00:40.108Z,55.24
2018-02-08T09:01:42.593Z,53.36
2018-02-08T09:02:45.070Z,55.46
2018-02-08T09:03:47.664Z,54.51
2018-02-08T09:04:50.225Z,55.94
2018-02-08T09:05:52.722Z,55.64
2018-02-08T09:06:55.207Z,55.15
2018-02-08T09:07:57.694Z,53.03
2018-02-08T09:09:00.189Z,53.11
2018-02-08T09:10:02.679Z,54.16
2018-02-08T09:11:05.162Z,52.79
2018-02-08T09:12:07.659Z,53.06
2018-02-08T09:13:10.124Z,54.14
2018-02-08T09:14:12.604Z,53.31
2018-02-08T09:15:15.183Z,52.94
2018-02-08T09:16:17.676Z,53.43
2018-02-08T09:17:20.157Z,52.22
2018-02-08T09:18:22.774Z,55.59
2018-02-08T09:19:25.283Z,57.11
2018-02-08T09:20:27.764Z,59.27
2018-02-08T09:21:30.224Z,60.22
2018-02-08T09:22:32.694Z,58.38
2018-02-08T09:23:35.190Z,57.39
2018-02-08T09:24:37.690Z,55.34
2018-02-08T09:25:40.177Z,55.01
2018-02-08T09:26:42.649Z,54.57
2018-02-08T09:27:45.151Z,57.94
2018-02-08T09:28:47.642Z,60.96
2018-02-08T09:29:50.139Z,61.84
2018-02-08T09:30:52.794Z,58.83
2018-02-08T09:31:55.357Z,55.79
2018-02-08T09:32:57.836Z,54.93
2018-02-08T09:34:00.312Z,55.87
2018-02-08T09:35:02.927Z,56.02
2018-02-08T09:36:05.416Z,57.28
2018-02-08T09:37:07.909Z,57.87
2018-02-08T09:38:10.434Z,57.63
2018-02-08T09:39:12.896Z,60.06
2018-02-08T09:40:15.382Z,59.02
2018-02-08T09:41:17.850Z,58.32
2018-02-08T09:42:20.334Z,60.15
2018-02-08T09:43:22.826Z,60.17
2018-02-08T09:44:26.221Z,59.08
2018-02-08T09:45:32.746Z,58.61
2018-02-08T09:46:36.866Z,57.42
2018-02-08T09:47:39.334Z,59.43
2018-02-08T09:48:41.964Z,61.29
2018-02-08T09:49:44.447Z,57.15
2018-02-08T09:50:50.963Z,57.42
2018-02-08T09:51:54.251Z,55.16
2018-02-08T09:52:56.715Z,55.06
2018-02-08T09:53:59.193Z,55.86
2018-02-08T09:55:01.675Z,57.66
2018-02-08T09:56:04.143Z,58.58
2018-02-08T09:57:06.698Z,56.02
2018-02-08T09:58:09.148Z,54.40
2018-02-08T09:59:11.614Z,53.19
2018-02-08T10:00:14.085Z,52.89
2018-02-08T10:01:16.581Z,53.86
2018-02-08T10:02:19.063Z,52.08
2018-02-08T10:03:21.545Z,54.23
2018-02-08T10:04:24.062Z,49.77
2018-02-08T10:05:26.557Z,48.58
2018-02-08T10:06:29.031Z,48.14
2018-02-08T10:07:31.537Z,46.85
2018-02-08T10:08:34.002Z,48.42
2018-02-08T10:09:36.471Z,45.03
2018-02-08T10:10:38.947Z,42.45
2018-02-08T10:11:41.443Z,39.74
2018-02-08T10:12:43.923Z,39.76
2018-02-08T10:13:46.405Z,40.23
2018-02-08T10:14:48.886Z,44.42
2018-02-08T10:15:51.372Z,46.06
2018-02-08T10:16:53.862Z,46.82
2018-02-08T10:17:56.533Z,47.43
2018-02-08T10:18:59.050Z,50.61
2018-02-08T10:20:03.071Z,49.49
2018-02-08T10:21:06.203Z,45.88
2018-02-08T10:22:08.800Z,46.05
2018-02-08T10:23:11.299Z,44.84
2018-02-08T10:24:13.770Z,44.96
2018-02-08T10:25:16.249Z,45.63
2018-02-08T10:26:18.742Z,45.68
2018-02-08T10:27:21.230Z,47.96
2018-02-08T10:28:23.707Z,47.38
2018-02-08T10:29:26.194Z,45.61
2018-02-08T10:30:28.752Z,42.58
2018-02-08T10:31:31.238Z,42.02
2018-02-08T10:32:33.707Z,43.95
2018-02-08T10:33:36.180Z,43.22
2018-02-08T10:34:38.698Z,38.84
2018-02-08T10:35:41.377Z,39.51
2018-02-08T10:36:43.883Z,36.60
2018-02-08T10:37:46.406Z,41.26
2018-02-08T10:38:48.945Z,40.15
2018-02-08T10:39:51.437Z,35.32
2018-02-08T10:40:53.903Z,35.54
2018-02-08T10:41:56.366Z,39.64
2018-02-08T10:42:58.877Z,37.58
2018-02-08T10:44:01.354Z,43.20
2018-02-08T10:45:03.842Z,42.59
2018-02-08T10:46:06.412Z,40.83
2018-02-08T10:47:08.879Z,41.49
2018-02-08T10:48:11.386Z,44.82
2018-02-08T10:49:13.866Z,46.30
2018-02-08T10:50:16.402Z,46.50
2018-02-08T10:51:18.863Z,38.44
2018-02-08T10:52:21.376Z,36.31
2018-02-08T10:53:23.879Z,38.19
2018-02-08T10:54:26.377Z,35.16
2018-02-08T10:55:28.867Z,39.37
2018-02-08T10:56:31.463Z,38.81
2018-02-08T10:57:33.934Z,42.39
2018-02-08T10:58:36.425Z,41.54
2018-02-08T10:59:38.906Z,43.44
2018-02-08T11:00:41.384Z,41.26
2018-02-08T11:01:43.865Z,41.11
2018-02-08T11:02:46.345Z,40.98
2018-02-08T11:03:48.811Z,38.08
2018-02-08T11:04:51.307Z,36.28
2018-02-08T11:05:53.783Z,36.47
2018-02-08T11:06:56.273Z,35.81
2018-02-08T11:07:58.754Z,35.84
2018-02-08T11:09:01.227Z,36.24
2018-02-08T11:10:03.694Z,40.49
2018-02-08T11:11:06.181Z,37.79
2018-02-08T11:12:08.663Z,37.62
2018-02-08T11:13:11.150Z,37.12
2018-02-08T11:14:13.650Z,39.64
2018-02-08T11:15:16.143Z,36.64
2018-02-08T11:16:18.633Z,34.96
2018-02-08T11:17:21.104Z,36.63
2018-02-08T11:18:23.575Z,39.95
2018-02-08T11:19:26.049Z,38.29
2018-02-08T11:20:28.534Z,37.98
2018-02-08T11:21:31.013Z,37.17
2018-02-08T11:22:33.497Z,40.11
2018-02-08T11:23:35.981Z,37.86
2018-02-08T11:24:38.455Z,39.31
2018-02-08T11:25:40.937Z,36.51
2018-02-08T11:26:43.416Z,34.51
2018-02-08T11:27:45.909Z,33.60
2018-02-08T11:28:48.401Z,32.68
2018-02-08T11:29:50.888Z,34.23
2018-02-08T11:30:53.386Z,37.21
2018-02-08T11:31:55.854Z,37.92
2018-02-08T11:32:58.332Z,36.95
2018-02-08T11:34:00.824Z,36.40
2018-02-08T11:35:03.304Z,35.53
2018-02-08T11:36:05.782Z,32.95
2018-02-08T11:37:08.267Z,30.46
2018-02-08T11:38:10.743Z,31.68
2018-02-08T11:39:13.309Z,29.75
2018-02-08T11:40:15.881Z,31.63
2018-02-08T11:41:18.376Z,29.03
2018-02-08T11:42:20.864Z,31.09
2018-02-08T11:43:23.372Z,34.16
2018-02-08T11:44:25.905Z,33.45
2018-02-08T11:45:28.664Z,30.57
2018-02-08T11:46:31.164Z,34.27
2018-02-08T11:47:33.655Z,36.13
2018-02-08T11:48:36.141Z,34.50
2018-02-08T11:49:38.637Z,32.76
2018-02-08T11:50:41.123Z,30.60
2018-02-08T11:51:43.704Z,28.99
2018-02-08T11:52:46.174Z,27.21
2018-02-08T11:53:48.683Z,27.32
2018-02-08T11:54:51.168Z,31.78
2018-02-08T11:55:53.679Z,32.20
2018-02-08T11:56:56.849Z,31.31
2018-02-08T11:57:59.342Z,32.30
2018-02-08T11:59:01.850Z,33.16
2018-02-08T12:00:04.341Z,29.98
2018-02-08T12:01:06.837Z,29.03
2018-02-08T12:02:09.329Z,29.97
2018-02-08T12:03:11.929Z,28.41
2018-02-08T12:04:14.336Z,31.15
2018-02-08T12:05:16.835Z,29.15
2018-02-08T12:06:19.383Z,27.56
2018-02-08T12:07:21.901Z,26.44
2018-02-08T12:08:24.402Z,27.83
2018-02-08T12:09:26.896Z,30.48
2018-02-08T12:10:29.371Z,28.49
2018-02-08T12:11:31.853Z,30.52
2018-02-08T12:12:34.322Z,31.43
2018-02-08T12:13:36.842Z,31.48
2018-02-08T12:14:40.551Z,30.23
2018-02-08T12:15:43.044Z,30.69
2018-02-08T12:16:45.512Z,29.22
2018-02-08T12:17:47.982Z,27.47
2018-02-08T12:18:50.476Z,25.05
2018-02-08T12:19:52.959Z,26.09
2018-02-08T12:20:55.445Z,28.88
2018-02-08T12:21:57.944Z,29.45
2018-02-08T12:23:00.422Z,29.78
2018-02-08T12:24:02.921Z,29.26
2018-02-08T12:25:05.419Z,27.09
2018-02-08T12:26:07.919Z,28.43
2018-02-08T12:27:10.417Z,26.32
2018-02-08T12:28:12.916Z,26.84
2018-02-08T12:29:15.448Z,30.75
2018-02-08T12:30:17.927Z,30.65
2018-02-08T12:31:20.429Z,26.92
2018-02-08T12:32:22.919Z,25.92
2018-02-08T12:33:25.449Z,27.08
2018-02-08T12:34:27.961Z,28.77
2018-02-08T12:35:30.461Z,28.96
2018-02-08T12:36:32.956Z,28.20
2018-02-08T12:37:35.441Z,27.14
2018-02-08T12:38:37.950Z,27.12
2018-02-08T12:39:40.480Z,24.26
2018-02-08T12:40:42.960Z,24.45
2018-02-08T12:41:45.454Z,25.01
2018-02-08T12:42:47.933Z,25.88
2018-02-08T12:43:50.412Z,25.11
2018-02-08T12:44:52.921Z,26.28
2018-02-08T12:45:55.390Z,26.83
2018-02-08T12:46:57.875Z,24.66
2018-02-08T12:48:00.361Z,26.15
2018-02-08T12:49:02.852Z,25.61
2018-02-08T12:50:05.346Z,26.78
2018-02-08T12:51:07.831Z,26.73
2018-02-08T12:52:10.335Z,28.83
2018-02-08T12:53:12.824Z,29.19
2018-02-08T12:54:15.299Z,28.54
2018-02-08T12:55:17.810Z,27.65
2018-02-08T12:56:20.298Z,25.31
2018-02-08T12:57:22.778Z,24.42
2018-02-08T12:58:25.323Z,25.87
2018-02-08T12:59:27.799Z,30.01
2018-02-08T13:00:30.296Z,29.90
2018-02-08T13:01:32.791Z,30.80
2018-02-08T13:02:35.272Z,29.48
2018-02-08T13:03:37.755Z,26.10
2018-02-08T13:04:40.269Z,25.08
2018-02-08T13:05:42.864Z,24.23
2018-02-08T13:06:45.353Z,23.32
2018-02-08T13:07:47.840Z,22.54
2018-02-08T13:08:50.315Z,24.24
2018-02-08T13:09:52.788Z,27.69
2018-02-08T13:10:55.281Z,25.71
2018-02-08T13:11:57.779Z,24.81
2018-02-08T13:13:00.269Z,22.75
2018-02-08T13:14:02.734Z,23.27
2018-02-08T13:15:05.203Z,26.56
2018-02-08T13:16:07.716Z,28.74
2018-02-08T13:17:10.195Z,29.87
2018-02-08T13:18:12.732Z,27.83
2018-02-08T13:19:15.207Z,26.55
2018-02-08T13:20:17.750Z,25.44
2018-02-08T13:21:20.238Z,28.11
2018-02-08T13:22:22.721Z,27.83
2018-02-08T13:23:25.190Z,27.77
2018-02-08T13:24:27.668Z,28.20
2018-02-08T13:25:30.152Z,29.12
2018-02-08T13:26:32.680Z,28.23
2018-02-08T13:27:35.168Z,30.02
2018-02-08T13:28:37.673Z,27.37
2018-02-08T13:29:40.153Z,26.86
2018-02-08T13:30:42.622Z,24.99
2018-02-08T13:31:45.631Z,22.56
2018-02-08T13:32:48.098Z,23.06
2018-02-08T13:33:50.562Z,22.35
2018-02-08T13:34:53.057Z,21.77
2018-02-08T13:35:55.550Z,22.08
2018-02-08T13:36:58.065Z,22.56
2018-02-08T13:38:00.567Z,24.32
2018-02-08T13:39:03.035Z,24.66
2018-02-08T15:07:42.364Z,23.68
2018-02-08T15:08:44.849Z,23.27
2018-02-08T15:09:47.329Z,23.42
2018-02-08T15:10:49.820Z,24.16
2018-02-08T15:11:52.334Z,23.31
2018-02-08T15:12:54.807Z,23.15
2018-02-08T15:13:57.284Z,22.53
2018-02-08T15:14:59.774Z,21.42
2018-02-08T15:16:02.253Z,23.22
2018-02-08T15:17:04.748Z,23.60
2018-02-08T15:18:07.219Z,25.32
2018-02-08T15:19:09.707Z,25.10
2018-02-08T15:20:12.174Z,26.22
2018-02-08T15:21:14.644Z,26.54
2018-02-08T15:22:17.149Z,28.05
2018-02-08T15:23:19.645Z,27.74
2018-02-08T15:24:22.152Z,27.77
2018-02-08T15:25:24.631Z,28.76
2018-02-08T15:26:27.155Z,28.21
2018-02-08T15:27:29.659Z,28.97
2018-02-08T15:28:32.128Z,28.58
2018-02-08T15:29:34.617Z,29.15
2018-02-08T15:30:37.086Z,29.56
2018-02-08T15:31:39.568Z,29.15
2018-02-08T15:32:42.084Z,30.42
2018-02-08T15:33:44.574Z,29.71
2018-02-08T15:34:47.065Z,29.72
2018-02-08T15:35:49.553Z,32.16